Time;durP1;ratioP1;P1;durP2;ratioP2;P2;SDS_P1;SDS_P2;PMS_P1;PMS_P2;Temp;Humidity;BMP_temperature;BMP_pressure;BME280_temperature;BME280_humidity;BME280_pressure;Samples;Min_cycle;Max_cycle;Signal;HPM_P1;HPM_P2
2021/01/11 00:01:43;;;;;;;42.35;22.63;;;1.30;98.10;;;;;;5091918;28;20024;-72
2021/01/11 00:04:10;;;;;;;35.85;19.90;;;1.30;98.20;;;;;;5092040;28;20031;-74
2021/01/11 00:06:43;;;;;;;32.63;18.83;;;1.40;98.40;;;;;;5094407;28;20028;-72
2021/01/11 00:09:09;;;;;;;42.30;22.35;;;1.40;98.50;;;;;;5096076;28;20417;-74
2021/01/11 00:11:35;;;;;;;39.05;20.83;;;1.30;98.40;;;;;;5095838;28;20031;-75
2021/01/11 00:14:02;;;;;;;40.35;21.85;;;1.40;98.40;;;;;;5095572;28;20052;-73
2021/01/11 00:16:28;;;;;;;33.47;18.27;;;1.40;98.20;;;;;;5095422;28;20054;-73
2021/01/11 00:18:54;;;;;;;36.70;19.67;;;1.40;98.10;;;;;;5095796;28;20024;-73
2021/01/11 00:21:20;;;;;;;38.75;20.23;;;1.30;98.30;;;;;;5095640;28;20031;-73
2021/01/11 00:23:45;;;;;;;36.17;19.20;;;1.40;98.30;;;;;;5095267;28;20111;-74
2021/01/11 00:26:12;;;;;;;46.97;24.85;;;1.40;98.40;;;;;;5095554;28;20032;-72
2021/01/11 00:28:42;;;;;;;35.22;20.02;;;1.40;98.50;;;;;;5095612;28;20557;-74
2021/01/11 00:31:08;;;;;;;40.63;22.00;;;1.30;98.30;;;;;;5095182;28;20107;-72
2021/01/11 00:33:35;;;;;;;60.10;29.52;;;1.20;98.40;;;;;;5095441;28;20089;-74
2021/01/11 00:36:01;;;;;;;42.88;22.55;;;1.20;98.60;;;;;;5095303;28;20032;-76
2021/01/11 00:38:27;;;;;;;64.15;29.27;;;1.20;98.80;;;;;;5096812;28;20032;-75
2021/01/11 00:40:53;;;;;;;57.40;27.98;;;1.20;98.80;;;;;;5095295;28;20527;-73
2021/01/11 00:43:19;;;;;;;44.90;22.65;;;1.20;98.70;;;;;;5095326;28;20047;-75
2021/01/11 00:45:45;;;;;;;42.50;21.48;;;1.20;99.00;;;;;;5094888;28;20469;-74
2021/01/11 00:48:11;;;;;;;39.40;22.30;;;1.20;98.90;;;;;;5095155;28;20047;-74
2021/01/11 00:50:37;;;;;;;42.72;25.10;;;1.20;99.00;;;;;;5094846;28;20056;-75
2021/01/11 00:53:02;;;;;;;35.05;21.75;;;1.30;98.80;;;;;;5096155;28;20024;-73
2021/01/11 00:55:28;;;;;;;34.55;20.02;;;1.30;98.90;;;;;;5094966;28;20036;-76
2021/01/11 00:57:54;;;;;;;39.28;21.65;;;1.30;98.80;;;;;;5094797;28;20118;-72
2021/01/11 01:00:21;;;;;;;39.70;22.15;;;1.20;98.90;;;;;;5095181;28;20039;-75
2021/01/11 01:02:47;;;;;;;74.88;35.55;;;1.20;99.00;;;;;;5094892;28;20097;-74
2021/01/11 01:05:15;;;;;;;99.78;46.35;;;1.20;99.10;;;;;;5094817;28;20457;-75
2021/01/11 01:07:44;;;;;;;65.30;34.35;;;1.20;99.20;;;;;;5094825;28;20024;-73
2021/01/11 01:10:13;;;;;;;63.80;34.00;;;1.20;99.10;;;;;;5096097;28;20039;-74
2021/01/11 01:12:40;;;;;;;70.63;35.28;;;1.10;99.10;;;;;;5094418;28;20024;-72
2021/01/11 01:15:07;;;;;;;58.78;31.02;;;1.10;99.40;;;;;;5094529;28;20052;-75
2021/01/11 01:17:37;;;;;;;49.85;27.08;;;1.10;99.30;;;;;;5094323;28;20024;-74
2021/01/11 01:20:14;;;;;;;36.17;20.13;;;1.20;99.10;;;;;;5095503;28;20028;-76
2021/01/11 01:22:42;;;;;;;35.38;20.55;;;1.10;99.00;;;;;;5095668;28;20374;-74
2021/01/11 01:25:08;;;;;;;33.58;18.35;;;1.10;99.00;;;;;;5095148;28;20081;-74
2021/01/11 01:27:34;;;;;;;32.78;18.25;;;1.00;99.00;;;;;;5094533;28;20036;-73
2021/01/11 01:30:00;;;;;;;27.83;16.52;;;1.00;99.00;;;;;;5095369;28;20036;-74
2021/01/11 01:32:25;;;;;;;35.35;21.00;;;1.00;99.40;;;;;;5094463;28;20024;-73
2021/01/11 01:34:51;;;;;;;31.90;18.20;;;1.00;99.10;;;;;;5095286;28;20121;-75
2021/01/11 01:37:17;;;;;;;28.63;16.60;;;1.00;99.20;;;;;;5094323;28;20024;-74
2021/01/11 01:39:42;;;;;;;32.10;19.70;;;1.00;99.20;;;;;;5094536;28;20028;-72
2021/01/11 01:42:08;;;;;;;40.10;22.52;;;1.00;99.20;;;;;;5094184;28;20028;-73
2021/01/11 01:44:34;;;;;;;30.25;18.17;;;1.00;99.30;;;;;;5094052;28;20023;-74
2021/01/11 01:47:00;;;;;;;26.70;16.90;;;1.10;99.40;;;;;;5095291;28;20028;-73
2021/01/11 01:49:26;;;;;;;34.88;20.10;;;1.00;99.30;;;;;;5094659;28;20062;-74
2021/01/11 01:51:52;;;;;;;32.33;18.80;;;1.00;99.30;;;;;;5093958;28;20480;-72
2021/01/11 01:54:19;;;;;;;46.10;25.00;;;1.10;99.40;;;;;;5093285;28;20028;-75
2021/01/11 01:56:45;;;;;;;60.83;32.28;;;1.00;99.30;;;;;;5095688;28;20024;-73
2021/01/11 01:59:11;;;;;;;83.07;42.90;;;1.00;99.20;;;;;;5093846;28;20035;-74
2021/01/11 02:01:37;;;;;;;59.72;29.52;;;1.00;99.30;;;;;;5094047;28;20024;-74
2021/01/11 02:04:03;;;;;;;72.22;35.50;;;1.00;99.40;;;;;;5094170;28;20066;-73
2021/01/11 02:06:34;;;;;;;77.28;37.50;;;1.00;99.30;;;;;;5094029;28;20113;-74
2021/01/11 02:09:09;;;;;;;55.78;28.50;;;1.10;99.20;;;;;;5093390;28;20113;-73
2021/01/11 02:11:42;;;;;;;65.30;32.17;;;1.00;99.00;;;;;;5093572;28;20024;-74
2021/01/11 02:14:36;;;;;;;131.77;67.93;;;1.10;99.20;;;;;;5093632;28;20130;-75
2021/01/11 02:17:25;;;;;;;37.35;21.10;;;1.10;99.00;;;;;;5093830;28;20028;-73
2021/01/11 02:20:06;;;;;;;36.17;21.50;;;1.10;98.90;;;;;;5094839;28;20502;-72
2021/01/11 02:23:01;;;;;;;49.30;23.77;;;1.10;99.00;;;;;;5093326;28;20028;-72
2021/01/11 02:25:39;;;;;;;53.28;25.67;;;1.10;98.90;;;;;;5094256;28;20054;-74
2021/01/11 02:28:15;;;;;;;70.25;34.20;;;1.00;99.00;;;;;;5092542;28;20031;-72
2021/01/11 02:30:42;;;;;;;89.63;41.75;;;1.00;99.20;;;;;;5093082;28;20059;-73
2021/01/11 02:33:11;;;;;;;73.32;32.75;;;1.10;99.10;;;;;;5093167;28;20115;-75
2021/01/11 02:35:49;;;;;;;109.28;49.85;;;1.10;99.10;;;;;;5092854;28;20060;-72
2021/01/11 02:38:17;;;;;;;70.70;32.17;;;0.90;98.90;;;;;;5093067;28;20081;-72
2021/01/11 02:40:44;;;;;;;110.00;48.67;;;0.90;99.10;;;;;;5093164;28;20381;-75
2021/01/11 02:43:10;;;;;;;122.03;54.28;;;0.90;99.30;;;;;;5093764;28;20028;-73
2021/01/11 02:45:36;;;;;;;90.50;45.08;;;0.90;99.30;;;;;;5093545;28;20444;-73
2021/01/11 02:48:27;;;;;;;90.97;46.83;;;0.80;99.10;;;;;;5092886;28;20040;-75
2021/01/11 02:51:04;;;;;;;86.10;41.85;;;0.90;99.40;;;;;;5081033;28;20373;-72
2021/01/11 02:53:38;;;;;;;66.90;33.10;;;0.90;99.10;;;;;;5092935;28;20024;-76
2021/01/11 02:56:08;;;;;;;66.00;32.15;;;0.90;99.20;;;;;;5094232;28;20032;-73
2021/01/11 02:59:02;;;;;;;61.22;30.30;;;0.90;99.00;;;;;;5094034;28;20118;-73
2021/01/11 03:01:35;;;;;;;65.35;32.47;;;0.80;98.80;;;;;;5092843;28;20529;-73
2021/01/11 03:04:03;;;;;;;56.00;28.08;;;0.80;98.90;;;;;;5093284;28;20445;-73
2021/01/11 03:06:30;;;;;;;55.35;29.90;;;0.70;99.20;;;;;;5092710;28;20032;-77
2021/01/11 03:09:05;;;;;;;54.22;27.60;;;0.80;99.10;;;;;;5092675;28;20081;-74
2021/01/11 03:11:34;;;;;;;73.28;38.78;;;0.70;99.20;;;;;;5093628;28;20024;-76
2021/01/11 03:13:59;;;;;;;53.70;26.75;;;0.80;99.00;;;;;;5092721;28;20435;-71
2021/01/11 03:16:25;;;;;;;51.63;27.10;;;0.70;99.00;;;;;;5093124;28;20028;-73
2021/01/11 03:18:51;;;;;;;62.05;30.13;;;0.70;99.20;;;;;;5094002;28;20020;-72
2021/01/11 03:21:16;;;;;;;72.97;33.03;;;0.70;99.10;;;;;;5092443;28;20124;-71
2021/01/11 03:23:42;;;;;;;82.97;38.97;;;0.70;99.10;;;;;;5092559;28;20105;-77
2021/01/11 03:26:08;;;;;;;102.30;47.95;;;0.50;99.10;;;;;;5092609;28;20035;-72
2021/01/11 03:28:33;;;;;;;74.75;35.15;;;0.60;99.30;;;;;;5092652;28;20128;-76
2021/01/11 03:30:59;;;;;;;69.53;35.03;;;0.60;99.40;;;;;;5092724;28;20031;-72
2021/01/11 03:33:25;;;;;;;57.40;28.42;;;0.60;99.30;;;;;;5092321;28;20067;-73
2021/01/11 03:35:50;;;;;;;47.95;25.38;;;0.60;99.30;;;;;;5092337;28;20362;-73
2021/01/11 03:38:16;;;;;;;49.45;26.05;;;0.70;99.10;;;;;;5092449;28;20119;-72
2021/01/11 03:40:42;;;;;;;47.65;24.85;;;0.80;99.30;;;;;;5094557;28;20470;-74
2021/01/11 03:43:08;;;;;;;51.47;26.85;;;0.70;99.00;;;;;;5098072;28;20028;-72
2021/01/11 03:45:33;;;;;;;67.63;33.00;;;0.70;99.10;;;;;;5096151;28;20028;-73
2021/01/11 03:47:59;;;;;;;75.00;37.20;;;0.60;98.90;;;;;;5096730;28;20111;-76
2021/01/11 03:50:25;;;;;;;62.80;30.45;;;0.60;99.10;;;;;;5096357;28;20378;-73
2021/01/11 03:52:50;;;;;;;89.80;44.30;;;0.50;99.20;;;;;;5096040;28;20024;-74
2021/01/11 03:55:16;;;;;;;76.57;36.10;;;0.50;99.10;;;;;;5098134;28;20035;-74
2021/01/11 03:57:42;;;;;;;76.45;35.95;;;0.50;99.20;;;;;;5096397;28;20440;-72
2021/01/11 04:00:08;;;;;;;79.95;37.50;;;0.60;99.10;;;;;;5095943;28;20024;-74
2021/01/11 04:02:34;;;;;;;57.28;28.15;;;0.60;99.20;;;;;;5095971;28;20035;-73
2021/01/11 04:04:59;;;;;;;74.60;35.72;;;0.60;99.20;;;;;;5097354;28;20032;-73
2021/01/11 04:07:25;;;;;;;91.22;42.10;;;0.60;99.40;;;;;;5095788;28;20035;-73
2021/01/11 04:09:51;;;;;;;74.88;35.65;;;0.70;99.30;;;;;;5097167;28;20055;-74
2021/01/11 04:12:17;;;;;;;68.80;35.13;;;0.70;99.00;;;;;;5095874;28;20024;-75
2021/01/11 04:14:42;;;;;;;64.85;32.22;;;0.50;98.90;;;;;;5096782;28;20048;-75
2021/01/11 04:17:08;;;;;;;63.65;30.67;;;0.60;99.40;;;;;;5097219;28;20051;-74
2021/01/11 04:19:34;;;;;;;66.72;33.17;;;0.60;99.10;;;;;;5095723;28;20025;-73
2021/01/11 04:22:01;;;;;;;65.63;32.10;;;0.50;99.00;;;;;;5095534;28;20031;-73
2021/01/11 04:24:26;;;;;;;64.65;33.20;;;0.60;99.20;;;;;;5095647;28;20076;-73
2021/01/11 04:26:52;;;;;;;66.95;34.90;;;0.60;99.10;;;;;;5095683;28;20032;-74
2021/01/11 04:29:18;;;;;;;65.93;32.30;;;0.70;99.10;;;;;;5095327;28;20484;-73
2021/01/11 04:31:47;;;;;;;71.60;36.28;;;0.60;98.80;;;;;;5095518;28;20024;-74
2021/01/11 04:34:13;;;;;;;77.22;39.05;;;0.60;99.00;;;;;;5095455;28;20032;-74
2021/01/11 04:36:41;;;;;;;92.20;44.55;;;0.70;99.10;;;;;;5093242;28;20371;-74
2021/01/11 04:39:07;;;;;;;126.35;57.72;;;0.70;99.00;;;;;;5093636;28;20028;-74
2021/01/11 04:41:40;;;;;;;151.02;62.45;;;0.70;99.00;;;;;;5093366;28;20587;-72
2021/01/11 04:44:12;;;;;;;91.75;43.90;;;0.60;98.70;;;;;;5093562;28;20036;-74
2021/01/11 04:46:39;;;;;;;99.55;46.00;;;0.60;99.00;;;;;;5094478;28;20028;-72
2021/01/11 04:49:05;;;;;;;75.20;36.60;;;0.60;98.90;;;;;;5093183;28;20024;-76
2021/01/11 04:51:32;;;;;;;106.85;46.03;;;0.60;99.20;;;;;;5092948;28;20028;-75
2021/01/11 04:54:00;;;;;;;87.68;39.45;;;0.50;99.20;;;;;;5095759;28;20024;-74
2021/01/11 04:56:26;;;;;;;82.57;39.25;;;0.60;99.30;;;;;;5094730;28;20028;-74
2021/01/11 04:58:58;;;;;;;95.78;44.30;;;0.60;99.10;;;;;;5095323;28;20032;-73
2021/01/11 05:01:26;;;;;;;80.18;38.85;;;0.70;99.10;;;;;;5095531;28;20028;-72
2021/01/11 05:04:00;;;;;;;164.38;64.38;;;0.60;98.70;;;;;;5094681;28;20111;-75
2021/01/11 05:06:26;;;;;;;145.95;61.72;;;0.60;98.80;;;;;;5095053;28;20462;-74
2021/01/11 05:08:52;;;;;;;93.80;41.30;;;0.50;99.00;;;;;;5095111;28;20465;-73
2021/01/11 05:11:17;;;;;;;77.85;36.95;;;0.60;99.40;;;;;;5096010;28;20029;-73
2021/01/11 05:13:43;;;;;;;91.60;42.15;;;0.60;99.30;;;;;;5094685;28;20052;-73
2021/01/11 05:16:13;;;;;;;85.38;42.75;;;0.70;99.00;;;;;;5096065;28;20039;-74
2021/01/11 05:18:39;;;;;;;149.85;60.75;;;0.60;98.80;;;;;;5094419;28;20028;-74
2021/01/11 05:21:05;;;;;;;139.57;57.75;;;0.50;98.80;;;;;;5094688;28;20465;-74
2021/01/11 05:23:36;;;;;;;205.93;80.88;;;0.60;99.10;;;;;;5094431;28;20028;-73
2021/01/11 05:26:14;;;;;;;152.63;65.18;;;0.60;99.00;;;;;;5095335;28;20024;-72
2021/01/11 05:28:42;;;;;;;104.07;48.13;;;0.50;99.10;;;;;;5095465;28;20024;-75
2021/01/11 05:31:08;;;;;;;302.85;98.28;;;0.50;99.00;;;;;;5094194;28;20414;-73
2021/01/11 05:33:34;;;;;;;114.93;51.53;;;0.50;99.10;;;;;;5094574;28;20458;-73
2021/01/11 05:36:12;;;;;;;108.70;51.90;;;0.50;99.10;;;;;;5094286;28;20488;-74
2021/01/11 05:38:45;;;;;;;137.48;63.58;;;0.50;99.20;;;;;;5093725;28;20020;-74
2021/01/11 05:41:19;;;;;;;155.13;69.45;;;0.40;99.40;;;;;;5095562;28;20025;-74
2021/01/11 05:44:09;;;;;;;150.07;69.18;;;0.40;99.40;;;;;;5094215;28;20028;-75
2021/01/11 05:46:35;;;;;;;118.57;53.25;;;0.50;99.40;;;;;;5094111;28;20028;-75
2021/01/11 05:49:06;;;;;;;111.90;53.67;;;0.60;99.30;;;;;;5094123;28;20020;-72
2021/01/11 05:51:33;;;;;;;117.60;55.67;;;0.60;99.30;;;;;;5093791;28;20089;-73
2021/01/11 05:53:59;;;;;;;131.82;58.28;;;0.60;99.20;;;;;;5093989;28;20123;-73
2021/01/11 05:56:25;;;;;;;140.30;62.55;;;0.60;99.10;;;;;;5093811;28;20122;-76
2021/01/11 05:59:09;;;;;;;120.30;55.20;;;0.40;99.10;;;;;;5093637;28;20028;-72
2021/01/11 06:01:37;;;;;;;126.03;57.70;;;0.30;99.40;;;;;;5093925;28;20028;-74
2021/01/11 06:04:06;;;;;;;125.55;59.33;;;0.30;99.90;;;;;;5093781;28;20465;-73
2021/01/11 06:06:32;;;;;;;131.38;61.17;;;0.20;99.70;;;;;;5093420;28;20070;-72
2021/01/11 06:08:57;;;;;;;157.10;68.65;;;0.30;99.90;;;;;;5094975;28;20028;-73
2021/01/11 06:11:25;;;;;;;129.45;59.45;;;0.30;99.90;;;;;;5093586;28;20050;-73
2021/01/11 06:13:53;;;;;;;122.32;56.40;;;0.40;99.90;;;;;;5093132;28;20139;-71
2021/01/11 06:16:20;;;;;;;172.77;80.18;;;0.50;99.90;;;;;;5094014;28;20032;-73
2021/01/11 06:18:51;;;;;;;224.40;110.97;;;0.40;99.50;;;;;;5094755;28;20055;-76
2021/01/11 06:21:20;;;;;;;240.40;114.00;;;0.30;99.60;;;;;;5093143;28;20481;-74
2021/01/11 06:23:46;;;;;;;288.70;127.25;;;0.20;99.80;;;;;;5093405;28;20038;-75
2021/01/11 06:26:27;;;;;;;372.88;175.70;;;0.10;99.90;;;;;;5093426;28;20496;-74
2021/01/11 06:28:57;;;;;;;283.55;172.43;;;0.20;99.90;;;;;;5094367;28;20030;-75
2021/01/11 06:31:33;;;;;;;205.18;103.07;;;0.10;99.90;;;;;;5094140;28;20081;-75
2021/01/11 06:33:59;;;;;;;303.35;166.15;;;0.20;99.90;;;;;;5094436;28;20027;-72
2021/01/11 06:36:28;;;;;;;333.95;184.75;;;0.20;99.90;;;;;;5093115;28;20032;-73
2021/01/11 06:38:54;;;;;;;179.70;87.00;;;0.20;99.90;;;;;;5094369;28;20020;-75
2021/01/11 06:41:26;;;;;;;167.98;82.05;;;0.20;99.80;;;;;;5093224;28;20030;-71
2021/01/11 06:43:54;;;;;;;157.77;76.30;;;0.10;99.90;;;;;;5093087;28;20085;-74
2021/01/11 06:46:28;;;;;;;190.90;83.57;;;0.00;99.90;;;;;;5093092;28;20039;-72
2021/01/11 06:49:01;;;;;;;223.27;96.03;;;0.10;99.90;;;;;;5092418;28;20024;-73
2021/01/11 06:51:41;;;;;;;203.15;85.53;;;0.20;99.90;;;;;;5093190;28;20028;-72
2021/01/11 06:54:15;;;;;;;180.35;84.43;;;0.10;99.90;;;;;;5093278;28;20087;-74
2021/01/11 06:56:42;;;;;;;163.48;83.18;;;0.20;99.90;;;;;;5092730;28;20469;-74
2021/01/11 06:59:13;;;;;;;178.23;87.18;;;0.30;99.80;;;;;;5092796;28;20028;-75
2021/01/11 07:01:42;;;;;;;235.75;97.95;;;0.30;99.90;;;;;;5092564;28;20385;-74
2021/01/11 07:04:10;;;;;;;182.48;87.22;;;0.40;99.80;;;;;;5093074;28;20103;-73
2021/01/11 07:06:45;;;;;;;162.38;74.65;;;0.30;99.60;;;;;;5093828;28;20028;-75
2021/01/11 07:09:17;;;;;;;214.07;106.72;;;0.40;99.40;;;;;;5092747;28;20382;-74
2021/01/11 07:11:48;;;;;;;185.90;93.47;;;0.50;99.60;;;;;;5092655;28;20470;-76
2021/01/11 07:14:20;;;;;;;145.32;64.93;;;0.50;99.20;;;;;;5092130;28;20056;-73
2021/01/11 07:16:52;;;;;;;153.55;77.10;;;0.50;99.20;;;;;;5092264;28;20086;-72
2021/01/11 07:19:23;;;;;;;136.18;66.75;;;0.40;99.40;;;;;;5093492;28;20400;-73
2021/01/11 07:21:49;;;;;;;143.35;73.65;;;0.30;99.30;;;;;;5092506;28;20031;-71
2021/01/11 07:24:16;;;;;;;129.98;64.30;;;0.40;99.30;;;;;;5093534;28;20024;-75
2021/01/11 07:26:42;;;;;;;160.05;81.35;;;0.50;99.30;;;;;;5093861;28;20107;-72
2021/01/11 07:29:10;;;;;;;160.85;83.78;;;0.40;99.30;;;;;;5093776;28;20059;-74
2021/01/11 07:31:38;;;;;;;159.98;81.50;;;0.40;99.20;;;;;;5092015;28;20036;-72
2021/01/11 07:34:24;;;;;;;176.75;88.55;;;0.50;99.50;;;;;;5093995;28;20039;-71
2021/01/11 07:36:56;;;;;;;246.20;104.05;;;0.40;99.30;;;;;;5093547;28;20071;-72
2021/01/11 07:39:27;;;;;;;200.02;94.13;;;0.40;99.20;;;;;;5092615;28;20024;-73
2021/01/11 07:42:01;;;;;;;159.13;81.68;;;0.50;99.70;;;;;;5092324;28;20024;-73
2021/01/11 07:44:32;;;;;;;174.40;90.63;;;0.60;99.40;;;;;;5093410;28;20034;-73
2021/01/11 07:46:58;;;;;;;162.95;81.90;;;0.60;98.90;;;;;;5093546;28;20402;-73
2021/01/11 07:49:25;;;;;;;177.55;93.57;;;0.60;98.90;;;;;;5093951;28;20142;-73
2021/01/11 07:51:52;;;;;;;135.20;71.65;;;0.40;98.90;;;;;;5092003;28;20024;-74
2021/01/11 07:54:20;;;;;;;139.65;71.30;;;0.40;99.30;;;;;;5093527;28;20028;-75
2021/01/11 07:56:48;;;;;;;155.73;83.93;;;0.60;99.40;;;;;;5093506;28;20066;-75
2021/01/11 07:59:14;;;;;;;181.25;93.55;;;0.60;99.10;;;;;;5093500;28;20032;-72
2021/01/11 08:01:42;;;;;;;160.45;81.93;;;0.50;99.10;;;;;;5092568;28;20373;-73
2021/01/11 08:04:10;;;;;;;193.75;99.03;;;0.60;99.10;;;;;;5091823;28;20031;-73
2021/01/11 08:06:56;;;;;;;195.15;97.05;;;0.50;99.10;;;;;;5091957;28;20032;-75
2021/01/11 08:09:25;;;;;;;165.77;82.93;;;0.60;99.40;;;;;;5093753;28;20028;-76
2021/01/11 08:12:25;;;;;;;165.98;87.30;;;0.60;99.00;;;;;;5091703;28;20028;-71
2021/01/11 08:14:51;;;;;;;243.23;131.98;;;0.50;99.00;;;;;;5038003;28;20147;-73
2021/01/11 08:17:25;;;;;;;318.27;127.93;;;0.60;99.20;;;;;;5092040;28;20419;-74
2021/01/11 08:19:57;;;;;;;142.27;74.53;;;0.80;99.00;;;;;;5091754;28;20020;-77
2021/01/11 08:22:24;;;;;;;146.10;70.68;;;0.80;98.60;;;;;;5091955;28;20028;-71
2021/01/11 08:24:51;;;;;;;269.50;101.75;;;0.70;98.60;;;;;;5093559;28;20110;-72
2021/01/11 08:27:20;;;;;;;192.40;93.18;;;0.80;98.80;;;;;;5094858;28;20021;-70
2021/01/11 08:29:47;;;;;;;372.02;155.30;;;0.70;98.80;;;;;;5095342;28;20040;-73
2021/01/11 08:32:16;;;;;;;283.70;131.05;;;0.90;98.80;;;;;;5095597;28;20122;-73
2021/01/11 08:34:42;;;;;;;260.77;121.85;;;0.90;98.70;;;;;;5096385;28;20051;-72
2021/01/11 08:37:21;;;;;;;171.23;85.72;;;0.90;98.50;;;;;;5095140;28;20399;-74
2021/01/11 08:39:58;;;;;;;299.77;128.25;;;0.90;98.50;;;;;;5095435;28;20126;-75
2021/01/11 08:42:29;;;;;;;272.90;115.65;;;0.90;98.50;;;;;;5096016;28;20024;-74
2021/01/11 08:45:15;;;;;;;318.98;126.53;;;0.80;98.50;;;;;;5093699;28;20043;-73
2021/01/11 08:47:41;;;;;;;241.57;98.72;;;0.80;98.70;;;;;;5092566;28;20039;-74
2021/01/11 08:50:07;;;;;;;157.70;71.88;;;1.20;98.90;;;;;;5094881;28;20024;-75
2021/01/11 08:52:34;;;;;;;173.38;86.00;;;1.20;98.00;;;;;;5095095;28;20028;-73
2021/01/11 08:55:14;;;;;;;201.40;101.50;;;1.10;98.20;;;;;;5091556;28;20101;-73
2021/01/11 08:57:40;;;;;;;146.75;73.38;;;1.00;98.20;;;;;;5096593;28;20039;-73
2021/01/11 09:00:13;;;;;;;158.65;77.95;;;1.00;98.20;;;;;;5095216;28;20371;-71
2021/01/11 09:02:49;;;;;;;187.60;89.00;;;1.10;98.60;;;;;;5095369;28;20508;-73
2021/01/11 09:05:16;;;;;;;157.15;77.22;;;1.10;98.40;;;;;;5092499;28;20039;-74
2021/01/11 09:07:43;;;;;;;173.75;84.72;;;1.30;98.20;;;;;;5093785;28;20032;-73
2021/01/11 09:10:22;;;;;;;156.18;81.18;;;1.30;97.90;;;;;;5093502;28;20043;-73
2021/01/11 09:12:49;;;;;;;129.05;64.65;;;1.30;97.90;;;;;;5092021;28;20077;-75
2021/01/11 09:15:24;;;;;;;137.80;65.78;;;1.40;97.80;;;;;;5096541;28;20135;-73
2021/01/11 09:18:01;;;;;;;129.43;63.03;;;1.40;97.60;;;;;;5094605;28;20381;-75
2021/01/11 09:20:26;;;;;;;132.75;64.68;;;1.40;97.30;;;;;;5094305;28;20020;-74
2021/01/11 09:22:56;;;;;;;124.10;59.30;;;1.30;97.80;;;;;;5094504;28;20036;-72
2021/01/11 09:25:23;;;;;;;156.52;81.07;;;1.40;98.20;;;;;;5094270;28;20489;-73
2021/01/11 09:27:50;;;;;;;139.15;67.68;;;1.40;97.90;;;;;;5095602;28;20085;-74
2021/01/11 09:30:16;;;;;;;169.25;88.70;;;1.50;98.20;;;;;;5094406;28;20024;-75
2021/01/11 09:32:44;;;;;;;209.63;113.82;;;1.70;97.80;;;;;;5095688;28;20024;-75
2021/01/11 09:35:12;;;;;;;133.35;68.53;;;1.40;97.30;;;;;;5095170;28;20473;-75
2021/01/11 09:37:38;;;;;;;170.98;87.00;;;1.70;97.70;;;;;;5094017;28;20031;-75
2021/01/11 09:40:05;;;;;;;136.63;66.18;;;1.70;97.40;;;;;;5092280;28;20462;-75
2021/01/11 09:42:31;;;;;;;134.02;63.33;;;1.40;97.20;;;;;;5093510;28;20031;-75
2021/01/11 09:44:57;;;;;;;125.80;62.20;;;1.60;97.70;;;;;;5094291;28;20028;-75
2021/01/11 09:47:23;;;;;;;114.00;57.72;;;1.80;97.20;;;;;;5095163;28;20466;-74
2021/01/11 09:49:49;;;;;;;105.78;50.22;;;1.60;97.50;;;;;;5094330;28;20074;-76
2021/01/11 09:52:15;;;;;;;119.05;58.80;;;1.30;97.30;;;;;;5093926;28;20378;-74
2021/01/11 09:54:41;;;;;;;150.57;76.47;;;1.40;98.20;;;;;;5093703;28;20024;-76
2021/01/11 09:57:10;;;;;;;133.55;65.97;;;1.60;97.80;;;;;;5094116;28;20027;-73
2021/01/11 09:59:37;;;;;;;147.30;73.38;;;1.70;97.30;;;;;;5094758;28;20115;-73
2021/01/11 10:02:02;;;;;;;166.07;79.32;;;1.80;97.30;;;;;;5093638;28;20051;-76
2021/01/11 10:04:29;;;;;;;247.55;107.45;;;1.90;96.90;;;;;;5094447;28;20024;-74
2021/01/11 10:06:56;;;;;;;222.95;103.53;;;2.00;97.10;;;;;;5093692;28;20031;-74
2021/01/11 10:09:24;;;;;;;158.82;81.18;;;2.20;97.10;;;;;;5093445;28;20401;-74
2021/01/11 10:11:55;;;;;;;191.70;88.25;;;2.30;96.30;;;;;;5093724;28;20031;-75
2021/01/11 10:14:21;;;;;;;144.48;76.05;;;2.00;96.30;;;;;;5093328;28;20384;-74
2021/01/11 10:16:49;;;;;;;210.13;112.30;;;1.80;96.10;;;;;;5093449;28;20035;-74
2021/01/11 10:19:26;;;;;;;182.98;80.95;;;2.00;96.60;;;;;;5095419;28;20024;-74
2021/01/11 10:21:53;;;;;;;195.40;89.60;;;1.80;96.30;;;;;;5093662;28;20473;-72
2021/01/11 10:24:20;;;;;;;189.32;88.65;;;2.10;96.80;;;;;;5093429;28;20028;-73
2021/01/11 10:26:48;;;;;;;175.50;88.88;;;2.40;96.90;;;;;;5093519;28;20119;-75
2021/01/11 10:29:20;;;;;;;158.45;76.85;;;2.30;95.60;;;;;;5092968;28;20047;-74
2021/01/11 10:31:46;;;;;;;140.20;74.75;;;2.30;96.40;;;;;;5093899;28;20440;-75
2021/01/11 10:34:13;;;;;;;191.57;104.05;;;2.30;95.90;;;;;;5093243;28;20488;-76
2021/01/11 10:36:45;;;;;;;145.27;84.80;;;2.30;96.00;;;;;;5092841;28;20032;-73
2021/01/11 10:39:11;;;;;;;146.45;80.43;;;2.20;96.00;;;;;;5094746;28;20035;-74
2021/01/11 10:41:37;;;;;;;143.98;76.78;;;2.20;96.40;;;;;;5093170;28;20024;-73
2021/01/11 10:44:05;;;;;;;130.55;70.05;;;2.10;96.00;;;;;;5092742;28;20070;-75
2021/01/11 10:46:31;;;;;;;144.27;73.30;;;2.20;96.40;;;;;;5092131;28;20028;-73
2021/01/11 10:48:57;;;;;;;111.22;57.10;;;2.20;96.30;;;;;;5092201;28;20057;-73
2021/01/11 10:51:23;;;;;;;131.27;70.75;;;2.00;95.90;;;;;;5093720;28;20094;-74
2021/01/11 10:53:50;;;;;;;205.18;115.05;;;1.90;96.40;;;;;;5092628;28;20032;-76
2021/01/11 10:56:16;;;;;;;191.85;96.53;;;1.90;96.60;;;;;;5092422;28;20088;-74
2021/01/11 10:58:42;;;;;;;148.77;75.10;;;1.90;97.10;;;;;;5092789;28;20028;-73
2021/01/11 11:01:10;;;;;;;169.80;87.28;;;1.70;96.90;;;;;;5092775;28;20024;-73
2021/01/11 11:03:35;;;;;;;139.25;74.65;;;1.90;97.00;;;;;;5092353;28;20028;-74
2021/01/11 11:06:02;;;;;;;157.60;81.15;;;1.90;96.80;;;;;;5092694;28;20564;-74
2021/01/11 11:08:28;;;;;;;153.35;78.72;;;2.00;97.20;;;;;;5092705;28;20081;-74
2021/01/11 11:10:53;;;;;;;193.93;92.63;;;1.90;97.00;;;;;;5093716;28;20024;-75
2021/01/11 11:13:19;;;;;;;127.53;62.90;;;1.60;97.20;;;;;;5092460;28;20055;-73
2021/01/11 11:15:45;;;;;;;175.73;91.05;;;1.70;97.10;;;;;;5094035;28;20036;-73
2021/01/11 11:18:12;;;;;;;150.63;79.38;;;1.80;97.60;;;;;;5093681;28;20103;-73
2021/01/11 11:20:42;;;;;;;192.90;98.90;;;1.80;97.30;;;;;;5092560;28;20031;-73
2021/01/11 11:23:08;;;;;;;130.48;67.47;;;1.70;97.20;;;;;;5092629;28;20020;-72
2021/01/11 11:25:34;;;;;;;137.55;68.53;;;1.50;97.20;;;;;;5092215;28;20042;-74
2021/01/11 11:28:00;;;;;;;104.18;52.08;;;1.60;97.90;;;;;;5092181;28;20024;-72
2021/01/11 11:30:25;;;;;;;132.48;68.18;;;1.30;97.90;;;;;;5092369;28;20020;-73
2021/01/11 11:32:52;;;;;;;108.72;57.13;;;1.40;98.30;;;;;;5092090;28;20057;-74
2021/01/11 11:35:20;;;;;;;112.28;58.58;;;1.40;97.90;;;;;;5093584;28;20063;-73
2021/01/11 11:37:46;;;;;;;112.82;58.10;;;1.30;98.00;;;;;;5091745;28;20031;-74
2021/01/11 11:40:13;;;;;;;134.75;70.80;;;1.60;98.20;;;;;;5091591;28;20101;-73
2021/01/11 11:42:39;;;;;;;146.25;76.88;;;1.60;97.70;;;;;;5092928;28;20028;-75
2021/01/11 11:45:08;;;;;;;142.85;71.03;;;1.60;97.40;;;;;;5092619;28;20118;-77
2021/01/11 11:47:35;;;;;;;132.35;67.75;;;1.70;97.40;;;;;;5092878;28;20107;-76
2021/01/11 11:50:03;;;;;;;164.30;83.03;;;1.60;97.40;;;;;;5092591;28;20528;-79
2021/01/11 11:52:29;;;;;;;137.32;71.97;;;1.60;97.80;;;;;;5092070;28;20073;-77
2021/01/11 11:54:55;;;;;;;149.55;79.93;;;1.70;97.30;;;;;;5091112;28;20032;-76
2021/01/11 11:57:20;;;;;;;133.48;72.45;;;1.70;97.40;;;;;;5092411;28;20046;-79
2021/01/11 11:59:48;;;;;;;163.20;88.13;;;1.60;97.20;;;;;;5091416;28;20115;-76
2021/01/11 12:02:14;;;;;;;172.30;86.75;;;1.60;97.30;;;;;;5095814;28;20024;-79
2021/01/11 12:04:41;;;;;;;134.48;72.22;;;1.60;97.40;;;;;;5096118;28;20075;-76
2021/01/11 12:07:07;;;;;;;139.98;73.50;;;1.60;97.60;;;;;;5095859;28;20024;-77
2021/01/11 12:09:33;;;;;;;139.43;75.30;;;1.70;97.80;;;;;;5096097;28;20020;-78
2021/01/11 12:12:00;;;;;;;166.00;89.43;;;1.70;97.50;;;;;;5096031;28;20039;-76
2021/01/11 12:14:25;;;;;;;140.38;76.57;;;1.80;97.40;;;;;;5095457;28;20054;-79
2021/01/11 12:16:52;;;;;;;136.60;73.13;;;1.80;97.30;;;;;;5095845;28;20122;-77
2021/01/11 12:19:17;;;;;;;117.72;62.75;;;1.80;97.40;;;;;;5095918;28;20095;-78
2021/01/11 12:21:44;;;;;;;129.75;69.05;;;1.80;96.90;;;;;;5095571;28;20447;-76
2021/01/11 12:24:11;;;;;;;117.45;61.83;;;1.90;97.10;;;;;;5095355;28;20027;-76
2021/01/11 12:26:49;;;;;;;117.22;61.70;;;1.80;97.00;;;;;;5096784;28;20043;-76
2021/01/11 12:29:16;;;;;;;143.18;76.63;;;1.70;96.80;;;;;;5095351;28;20024;-78
2021/01/11 12:31:43;;;;;;;121.75;68.72;;;1.80;97.10;;;;;;5095617;28;20355;-76
2021/01/11 12:34:09;;;;;;;138.52;77.15;;;1.80;97.10;;;;;;5096554;28;20031;-76
2021/01/11 12:36:36;;;;;;;127.93;67.93;;;1.90;96.90;;;;;;5095390;28;20036;-78
2021/01/11 12:39:08;;;;;;;115.82;63.80;;;1.90;96.60;;;;;;5095400;28;20042;-77